Time;durP1;ratioP1;P1;durP2;ratioP2;P2;SDS_P1;SDS_P2;PMS_P1;PMS_P2;Temp;Humidity;BMP_temperature;BMP_pressure;BME280_temperature;BME280_humidity;BME280_pressure;Samples;Min_cycle;Max_cycle;Signal;HPM_P1;HPM_P2
2022/03/24 00:02:11;;;;;;;48.22;30.35;;;;;;;8.00;38.22;101171.44;5093391;28;20044;-74
2022/03/24 00:04:38;;;;;;;46.55;29.85;;;;;;;7.94;38.45;101160.34;5090840;28;20513;-74
2022/03/24 00:07:06;;;;;;;44.30;26.02;;;;;;;7.92;38.56;101170.09;5092315;28;20147;-77
2022/03/24 00:09:36;;;;;;;46.83;26.08;;;;;;;7.91;38.62;101168.41;5091681;28;20086;-76
2022/03/24 00:12:06;;;;;;;44.38;26.23;;;;;;;7.81;38.91;101173.22;5090890;28;20090;-78
2022/03/24 00:14:33;;;;;;;45.95;28.73;;;;;;;7.77;39.10;101169.88;5090000;28;20113;-75
2022/03/24 00:17:00;;;;;;;50.97;29.67;;;;;;;7.74;39.02;101163.91;5090838;28;20048;-78
2022/03/24 00:19:27;;;;;;;51.58;27.02;;;;;;;7.67;39.26;101168.59;5089587;28;20115;-78
2022/03/24 00:21:54;;;;;;;54.80;32.53;;;;;;;7.60;39.59;101159.28;5090201;28;20128;-75
2022/03/24 00:24:21;;;;;;;45.83;28.23;;;;;;;7.54;39.96;101167.44;5088131;28;20399;-76
2022/03/24 00:26:50;;;;;;;50.58;33.55;;;;;;;7.42;40.64;101167.09;5088481;28;20040;-75
2022/03/24 00:29:18;;;;;;;48.78;29.15;;;;;;;7.40;40.60;101166.28;5089131;28;20047;-76
2022/03/24 00:31:46;;;;;;;53.65;33.60;;;;;;;7.36;40.88;101163.88;5087367;28;20192;-76
2022/03/24 00:34:13;;;;;;;50.85;32.72;;;;;;;7.30;41.12;101165.00;5084123;28;20439;-75
2022/03/24 00:36:41;;;;;;;52.03;33.63;;;;;;;7.25;41.28;101161.72;5086642;28;20682;-77
2022/03/24 00:39:08;;;;;;;49.58;30.75;;;;;;;7.18;41.61;101170.78;5085255;28;20055;-76
2022/03/24 00:41:35;;;;;;;51.47;29.75;;;;;;;7.12;41.83;101168.44;5086840;28;20048;-76
2022/03/24 00:44:04;;;;;;;45.50;27.90;;;;;;;7.09;41.75;101172.03;5086629;28;20612;-76
2022/03/24 00:46:33;;;;;;;49.13;33.10;;;;;;;6.98;41.99;101161.97;5085597;28;20193;-78
2022/03/24 00:49:01;;;;;;;49.85;34.45;;;;;;;6.94;42.55;101165.66;5085738;28;20052;-77
2022/03/24 00:51:28;;;;;;;49.53;31.58;;;;;;;6.93;42.68;101171.81;5086642;28;20089;-75
2022/03/24 00:53:55;;;;;;;52.78;31.55;;;;;;;6.89;42.75;101165.00;5086364;28;20059;-76
2022/03/24 00:56:23;;;;;;;46.60;29.70;;;;;;;6.86;42.97;101173.00;5086193;28;20050;-77
2022/03/24 00:58:50;;;;;;;46.67;30.05;;;;;;;6.83;43.01;101166.13;5084834;28;20048;-79
2022/03/24 01:01:22;;;;;;;43.75;27.73;;;;;;;6.80;43.06;101166.25;5085999;28;20052;-76
2022/03/24 01:03:49;;;;;;;48.63;29.75;;;;;;;6.78;43.10;101164.63;5085185;28;20698;-77
2022/03/24 01:06:17;;;;;;;40.92;27.10;;;;;;;6.74;43.19;101158.63;5086168;28;20123;-78
2022/03/24 01:08:45;;;;;;;42.83;29.92;;;;;;;6.70;43.43;101165.78;5087126;28;20113;-77
2022/03/24 01:11:12;;;;;;;51.13;31.02;;;;;;;6.67;43.62;101159.81;5087763;28;20048;-79
2022/03/24 01:13:40;;;;;;;47.88;28.83;;;;;;;6.62;43.77;101167.03;5088347;28;20135;-76
2022/03/24 01:16:07;;;;;;;45.40;27.58;;;;;;;6.57;43.56;101159.34;5088329;28;20058;-75
2022/03/24 01:18:37;;;;;;;48.85;29.77;;;;;;;6.53;43.57;101167.41;5087456;28;20093;-76
2022/03/24 01:21:04;;;;;;;52.38;29.52;;;;;;;6.47;43.50;101160.63;5088115;28;20044;-74
2022/03/24 01:23:32;;;;;;;48.40;31.00;;;;;;;6.41;43.47;101169.63;5089742;28;20044;-75
2022/03/24 01:26:00;;;;;;;60.53;31.70;;;;;;;6.34;43.46;101173.41;5094342;28;20063;-75
2022/03/24 01:28:30;;;;;;;55.35;31.60;;;;;;;6.26;43.62;101172.84;5098853;28;20571;-78
2022/03/24 01:30:58;;;;;;;50.72;30.73;;;;;;;6.19;43.72;101163.50;5097529;28;20051;-78
2022/03/24 01:33:25;;;;;;;68.70;36.08;;;;;;;6.12;43.56;101170.75;5096022;28;20048;-81
2022/03/24 01:35:55;;;;;;;65.10;36.40;;;;;;;6.04;43.36;101162.34;5094503;28;20607;-81
2022/03/24 01:38:23;;;;;;;48.15;28.38;;;;;;;5.95;43.33;101166.16;5094814;28;20058;-80
2022/03/24 01:40:50;;;;;;;67.22;33.50;;;;;;;5.82;43.64;101163.16;5094068;28;20667;-79
2022/03/24 01:43:19;;;;;;;55.33;32.35;;;;;;;5.74;43.54;101170.44;5089692;28;20084;-76
2022/03/24 01:45:46;;;;;;;65.18;31.13;;;;;;;5.66;43.54;101167.25;5089318;28;20040;-78
2022/03/24 01:48:14;;;;;;;52.35;29.65;;;;;;;5.60;43.56;101170.09;5088477;28;20132;-76
2022/03/24 01:50:41;;;;;;;61.75;31.38;;;;;;;5.51;43.73;101173.91;5089093;28;20125;-77
2022/03/24 01:53:10;;;;;;;65.03;33.60;;;;;;;5.44;44.03;101170.66;5088528;28;20090;-77
2022/03/24 01:55:38;;;;;;;69.97;36.30;;;;;;;5.38;44.01;101167.41;5088466;28;20119;-78
2022/03/24 01:58:07;;;;;;;57.50;30.88;;;;;;;5.28;43.93;101174.75;5088231;28;20044;-79
2022/03/24 02:00:35;;;;;;;60.40;30.63;;;;;;;5.22;44.03;101178.44;5090235;28;20109;-80
2022/03/24 02:03:04;;;;;;;63.63;34.42;;;;;;;5.13;44.08;101181.38;5088715;28;20131;-76
2022/03/24 02:05:32;;;;;;;56.13;30.50;;;;;;;5.08;44.20;101176.31;5087656;28;20047;-77
2022/03/24 02:08:03;;;;;;;61.72;31.90;;;;;;;5.02;44.41;101171.25;5088964;28;20119;-74
2022/03/24 02:10:34;;;;;;;60.03;33.80;;;;;;;5.00;44.21;101180.09;5087962;28;20056;-78
2022/03/24 02:13:03;;;;;;;64.45;31.38;;;;;;;4.92;44.30;101173.34;5088209;28;20048;-77
2022/03/24 02:15:34;;;;;;;65.07;31.65;;;;;;;4.88;44.26;101178.75;5089548;28;20663;-79
2022/03/24 02:18:03;;;;;;;65.53;32.65;;;;;;;4.82;44.35;101177.19;5089877;28;20106;-77
2022/03/24 02:20:35;;;;;;;69.72;34.65;;;;;;;4.73;44.59;101182.72;5086365;28;20675;-77
2022/03/24 02:23:03;;;;;;;73.55;33.95;;;;;;;4.66;44.77;101176.00;5089912;28;20044;-76
2022/03/24 02:25:33;;;;;;;73.38;38.67;;;;;;;4.59;44.80;101180.56;5088377;28;20083;-76
2022/03/24 02:28:02;;;;;;;60.20;34.20;;;;;;;4.53;44.68;101176.38;5087288;28;20698;-76
2022/03/24 02:30:30;;;;;;;68.05;34.80;;;;;;;4.51;45.16;101172.97;5088711;28;20082;-77
2022/03/24 02:32:57;;;;;;;62.90;32.58;;;;;;;4.45;45.26;101175.81;5088069;28;20050;-76
2022/03/24 02:35:25;;;;;;;65.70;33.90;;;;;;;4.37;45.04;101180.41;5086205;28;20052;-78
2022/03/24 02:37:52;;;;;;;56.30;33.95;;;;;;;4.30;45.33;101187.59;5094967;28;20144;-76
2022/03/24 02:40:21;;;;;;;57.05;31.88;;;;;;;4.24;45.35;101189.56;5107397;28;20222;-77
2022/03/24 02:42:48;;;;;;;61.78;33.05;;;;;;;4.14;45.50;101189.84;5094625;28;20048;-77
2022/03/24 02:45:15;;;;;;;54.10;32.85;;;;;;;4.07;45.51;101193.56;5090537;28;20140;-78
2022/03/24 02:47:44;;;;;;;61.28;32.38;;;;;;;4.01;45.66;101184.09;5091252;28;20083;-79
2022/03/24 02:50:11;;;;;;;62.63;34.58;;;;;;;3.99;46.39;101185.91;5090914;28;20142;-79
2022/03/24 02:52:39;;;;;;;66.65;37.20;;;;;;;3.99;46.84;101190.28;5088813;28;20491;-77
2022/03/24 02:55:09;;;;;;;62.97;37.47;;;;;;;3.98;47.66;101189.44;5089652;28;20170;-77
2022/03/24 02:57:38;;;;;;;68.15;42.88;;;;;;;4.01;48.01;101188.50;5088294;28;20063;-76
2022/03/24 03:00:07;;;;;;;73.05;38.80;;;;;;;4.01;48.31;101189.34;5090021;28;20135;-78
2022/03/24 03:02:34;;;;;;;59.67;37.30;;;;;;;4.04;48.50;101187.56;5089554;28;20109;-76
2022/03/24 03:05:03;;;;;;;61.72;35.08;;;;;;;4.04;48.73;101190.16;5087755;28;20127;-78
2022/03/24 03:07:30;;;;;;;64.82;37.10;;;;;;;4.06;48.77;101190.97;5090766;28;20080;-77
2022/03/24 03:09:58;;;;;;;67.75;39.63;;;;;;;4.08;49.02;101195.25;5091033;28;20048;-78
2022/03/24 03:12:26;;;;;;;56.67;35.88;;;;;;;4.09;48.86;101191.75;5098585;28;20032;-79
2022/03/24 03:14:56;;;;;;;65.97;37.58;;;;;;;4.09;49.03;101198.69;5108343;28;20035;-79
2022/03/24 03:17:23;;;;;;;65.05;34.67;;;;;;;4.08;48.80;101197.00;5103759;28;20036;-76
2022/03/24 03:19:50;;;;;;;66.40;36.05;;;;;;;4.07;48.99;101197.91;5100100;28;20063;-75
2022/03/24 03:22:18;;;;;;;88.65;46.17;;;;;;;4.04;48.61;101195.41;5091221;28;20044;-73
2022/03/24 03:24:45;;;;;;;88.40;45.65;;;;;;;3.98;48.46;101204.25;5090914;28;20123;-75
2022/03/24 03:27:12;;;;;;;89.40;47.58;;;;;;;3.88;48.13;101208.91;5091331;28;20050;-75
2022/03/24 03:29:39;;;;;;;82.43;40.63;;;;;;;3.80;48.04;101206.53;5092181;28;20044;-76
2022/03/24 03:32:10;;;;;;;83.63;39.72;;;;;;;3.74;48.22;101205.84;5091308;28;20588;-74
2022/03/24 03:34:38;;;;;;;97.55;45.75;;;;;;;3.68;48.02;101206.88;5089426;28;20541;-76
2022/03/24 03:37:06;;;;;;;59.67;34.33;;;;;;;3.57;48.37;101209.78;5093526;28;20067;-76
2022/03/24 03:39:34;;;;;;;74.40;34.25;;;;;;;3.50;48.17;101205.63;5099957;28;20048;-76
2022/03/24 03:42:02;;;;;;;77.65;41.00;;;;;;;3.41;48.50;101211.13;5102110;28;20074;-77
2022/03/24 03:44:30;;;;;;;70.90;39.40;;;;;;;3.35;48.54;101203.44;5094712;28;20491;-76
2022/03/24 03:46:57;;;;;;;80.40;42.45;;;;;;;3.31;48.71;101204.44;5091558;28;20044;-77
2022/03/24 03:49:26;;;;;;;73.43;37.95;;;;;;;3.27;48.84;101202.81;5090122;28;20475;-77
2022/03/24 03:51:53;;;;;;;60.72;35.63;;;;;;;3.19;48.85;101203.88;5089989;28;20086;-78
2022/03/24 03:54:21;;;;;;;79.10;45.35;;;;;;;3.16;49.05;101203.09;5086857;28;20052;-76
2022/03/24 03:56:49;;;;;;;85.15;46.92;;;;;;;3.17;48.86;101213.50;5086513;28;20048;-75
2022/03/24 03:59:16;;;;;;;321.05;172.23;;;;;;;3.14;48.97;101210.97;5085091;28;20150;-77
2022/03/24 04:01:43;;;;;;;133.60;78.95;;;;;;;3.13;49.26;101209.22;5085838;28;20044;-80
2022/03/24 04:04:12;;;;;;;98.15;50.33;;;;;;;3.13;49.39;101203.16;5083646;28;20075;-75
2022/03/24 04:06:41;;;;;;;67.57;38.58;;;;;;;3.11;49.64;101204.97;5085792;28;20058;-78
2022/03/24 04:09:09;;;;;;;69.00;35.17;;;;;;;3.07;49.54;101198.97;5087017;28;20040;-78
2022/03/24 04:11:37;;;;;;;68.75;34.65;;;;;;;3.02;49.24;101199.06;5086485;28;20484;-76
2022/03/24 04:14:05;;;;;;;66.90;34.35;;;;;;;2.98;49.24;101204.44;5087325;28;20512;-76
2022/03/24 04:16:32;;;;;;;81.22;38.13;;;;;;;2.93;49.36;101203.69;5087627;28;20395;-78
2022/03/24 04:18:59;;;;;;;81.03;40.20;;;;;;;2.92;49.14;101204.56;5089542;28;20071;-76
2022/03/24 04:21:26;;;;;;;95.15;47.17;;;;;;;2.86;49.44;101198.63;5087132;28;20072;-75
2022/03/24 04:23:56;;;;;;;99.78;50.60;;;;;;;2.86;49.38;101203.84;5085778;28;20085;-76
2022/03/24 04:26:23;;;;;;;77.20;42.47;;;;;;;2.80;49.32;101209.22;5088884;28;20051;-76
2022/03/24 04:28:51;;;;;;;88.70;42.90;;;;;;;2.73;49.15;101207.66;5090778;28;20580;-78
2022/03/24 04:31:17;;;;;;;96.85;42.33;;;;;;;2.74;49.25;101216.31;5095028;28;20127;-76
2022/03/24 04:33:45;;;;;;;104.07;45.85;;;;;;;2.70;49.23;101214.69;5098312;28;20166;-75
2022/03/24 04:36:11;;;;;;;101.43;48.55;;;;;;;2.70;49.30;101214.69;5095211;28;20452;-78
2022/03/24 04:38:39;;;;;;;91.38;43.70;;;;;;;2.70;49.23;101220.75;5099211;28;20074;-76
2022/03/24 04:41:08;;;;;;;85.55;42.17;;;;;;;2.75;49.26;101218.91;5098252;28;20051;-76
2022/03/24 04:43:36;;;;;;;119.80;55.22;;;;;;;2.77;49.29;101217.09;5089377;28;20058;-77
2022/03/24 04:46:05;;;;;;;131.18;63.20;;;;;;;2.84;49.46;101210.84;5085844;28;20048;-77
2022/03/24 04:48:36;;;;;;;102.75;46.25;;;;;;;2.92;49.42;101215.00;5086547;28;20136;-75
2022/03/24 04:51:05;;;;;;;79.90;38.55;;;;;;;3.00;49.39;101215.69;5084715;28;20052;-76
2022/03/24 04:53:34;;;;;;;79.90;44.08;;;;;;;3.11;49.37;101216.25;5087117;28;20040;-78
2022/03/24 04:56:01;;;;;;;94.95;46.30;;;;;;;3.23;49.29;101218.53;5069625;28;20128;-79
2022/03/24 04:58:29;;;;;;;81.00;44.92;;;;;;;3.35;49.29;101213.88;5086818;28;20048;-78
2022/03/24 05:00:57;;;;;;;74.35;45.55;;;;;;;3.51;49.49;101220.44;5087508;28;20138;-80
2022/03/24 05:03:23;;;;;;;78.28;38.80;;;;;;;3.74;49.79;101222.38;5086574;28;20051;-79
2022/03/24 05:05:50;;;;;;;84.80;46.10;;;;;;;3.92;49.59;101212.28;5083052;28;20130;-84
2022/03/24 05:08:18;;;;;;;73.78;41.55;;;;;;;4.11;49.81;101217.84;5085939;28;20127;-71
2022/03/24 05:10:45;;;;;;;82.65;45.63;;;;;;;4.16;49.58;101223.75;5078309;28;20054;-73
2022/03/24 05:13:12;;;;;;;101.50;56.10;;;;;;;4.11;49.89;101221.31;5082532;28;20052;-72
2022/03/24 05:15:40;;;;;;;82.32;46.78;;;;;;;4.00;50.56;101226.84;5082065;28;20667;-74
2022/03/24 05:18:08;;;;;;;87.85;50.55;;;;;;;3.93;50.82;101225.31;5084665;28;20123;-75
2022/03/24 05:20:36;;;;;;;95.18;50.92;;;;;;;3.88;51.03;101227.22;5087145;28;20043;-78
2022/03/24 05:23:03;;;;;;;91.60;53.92;;;;;;;3.87;51.36;101227.25;5087137;28;20087;-72
2022/03/24 05:25:30;;;;;;;94.72;52.63;;;;;;;3.86;51.60;101231.63;5081829;28;20044;-75
2022/03/24 05:27:57;;;;;;;95.75;51.75;;;;;;;3.89;51.88;101226.31;5084954;28;20602;-76
2022/03/24 05:30:24;;;;;;;92.57;49.92;;;;;;;3.93;51.80;101222.72;5084498;28;20134;-73
2022/03/24 05:32:53;;;;;;;85.78;54.72;;;;;;;3.93;51.88;101225.31;5083098;28;20407;-74
2022/03/24 05:35:20;;;;;;;87.00;50.85;;;;;;;3.98;51.87;101228.66;5081250;28;20630;-76
2022/03/24 05:37:47;;;;;;;93.32;56.70;;;;;;;3.99;51.86;101221.66;5085677;28;20116;-71
2022/03/24 05:40:14;;;;;;;103.45;60.40;;;;;;;4.01;52.27;101231.16;5087065;28;20108;-71
2022/03/24 05:42:41;;;;;;;100.97;60.03;;;;;;;4.06;52.37;101232.81;5085677;28;20123;-76
2022/03/24 05:45:09;;;;;;;97.75;58.35;;;;;;;4.12;52.65;101237.84;5068354;28;20404;-74
2022/03/24 05:47:36;;;;;;;93.32;56.60;;;;;;;4.18;52.60;101233.28;5066080;28;20051;-73
2022/03/24 05:50:05;;;;;;;97.88;52.53;;;;;;;4.26;52.69;101234.81;5064399;28;20511;-72
2022/03/24 05:52:32;;;;;;;86.93;54.85;;;;;;;4.31;52.66;101233.78;5061767;28;20588;-70
2022/03/24 05:54:59;;;;;;;92.15;57.15;;;;;;;4.38;52.65;101237.06;5061025;28;20057;-75
2022/03/24 05:57:26;;;;;;;90.32;55.67;;;;;;;4.44;52.79;101238.63;5061724;28;20055;-71
2022/03/24 05:59:53;;;;;;;96.10;56.65;;;;;;;4.53;52.64;101244.41;5062611;28;20045;-72
2022/03/24 06:02:21;;;;;;;89.28;55.28;;;;;;;4.60;52.55;101245.94;5062673;28;20052;-71
2022/03/24 06:04:48;;;;;;;76.78;49.65;;;;;;;4.69;52.43;101242.16;5060101;28;20075;-70
2022/03/24 06:07:18;;;;;;;87.28;51.40;;;;;;;4.80;52.36;101247.06;5062507;28;20113;-76
2022/03/24 06:09:46;;;;;;;95.00;53.92;;;;;;;4.91;52.32;101249.31;5062076;28;20056;-75
2022/03/24 06:12:15;;;;;;;85.78;52.55;;;;;;;5.01;52.01;101245.50;5066727;28;20032;-74
2022/03/24 06:14:42;;;;;;;81.68;53.13;;;;;;;5.11;51.89;101246.03;5066253;28;20059;-80
2022/03/24 06:17:09;;;;;;;90.90;53.15;;;;;;;5.20;51.88;101250.13;5066315;28;20419;-74
2022/03/24 06:19:38;;;;;;;94.60;55.53;;;;;;;5.27;52.15;101254.22;5065190;28;20128;-74
2022/03/24 06:22:08;;;;;;;90.05;50.50;;;;;;;5.34;52.26;101253.97;5067963;28;20052;-70
2022/03/24 06:24:36;;;;;;;89.65;55.13;;;;;;;5.45;52.24;101255.34;5070169;28;20135;-69
2022/03/24 06:27:03;;;;;;;81.15;53.20;;;;;;;5.53;52.17;101259.44;5066075;28;20151;-73
2022/03/24 06:29:31;;;;;;;89.00;53.00;;;;;;;5.63;51.70;101259.94;5066457;28;20054;-75
2022/03/24 06:31:58;;;;;;;82.82;53.03;;;;;;;5.68;51.80;101265.88;5064945;28;20057;-75
2022/03/24 06:34:26;;;;;;;78.25;47.05;;;;;;;5.85;51.35;101254.78;5063059;28;20538;-74
2022/03/24 06:36:54;;;;;;;80.68;53.83;;;;;;;5.96;51.36;101259.69;5065074;28;20085;-81
2022/03/24 06:39:21;;;;;;;78.65;49.45;;;;;;;6.03;51.15;101255.03;5048078;28;20515;-75
2022/03/24 06:41:50;;;;;;;83.57;54.83;;;;;;;6.10;51.18;101261.75;5065118;28;20048;-75
2022/03/24 06:44:17;;;;;;;80.55;47.58;;;;;;;6.21;50.72;101263.97;5065906;28;20053;-75
2022/03/24 06:46:44;;;;;;;86.22;49.70;;;;;;;6.34;50.58;101265.25;5064193;28;20041;-74
2022/03/24 06:49:11;;;;;;;73.20;48.55;;;;;;;6.40;50.55;101272.00;5062900;28;20132;-73
2022/03/24 06:51:37;;;;;;;67.82;43.20;;;;;;;6.47;50.17;101278.75;5064083;28;20102;-73
2022/03/24 06:54:05;;;;;;;69.63;49.70;;;;;;;6.59;49.93;101265.13;5064565;28;20262;-74
2022/03/24 06:56:32;;;;;;;76.03;47.35;;;;;;;6.69;49.85;101263.84;5064375;28;20041;-75
2022/03/24 06:59:01;;;;;;;65.18;42.95;;;;;;;6.78;49.70;101274.91;5063452;28;20373;-76
2022/03/24 07:01:28;;;;;;;64.70;48.22;;;;;;;6.87;49.36;101272.75;5064773;28;20538;-74
2022/03/24 07:03:55;;;;;;;70.15;44.42;;;;;;;6.98;49.10;101269.66;5061768;28;20098;-78
2022/03/24 07:06:22;;;;;;;89.18;65.20;;;;;;;7.12;48.93;101276.16;5065466;28;20044;-78
2022/03/24 07:08:50;;;;;;;85.32;59.88;;;;;;;7.17;48.79;101268.94;5070361;28;20049;-79
2022/03/24 07:11:17;;;;;;;74.20;49.83;;;;;;;7.28;48.58;101274.56;5074247;28;20108;-77
2022/03/24 07:13:44;;;;;;;69.70;52.85;;;;;;;7.35;48.02;101272.56;5067432;28;20052;-83
2022/03/24 07:16:12;;;;;;;73.57;46.15;;;;;;;7.48;48.02;101278.97;5068576;28;20040;-81
2022/03/24 07:18:39;;;;;;;66.75;44.35;;;;;;;7.57;47.68;101272.47;5070148;28;20051;-82
2022/03/24 07:21:06;;;;;;;67.18;45.05;;;;;;;7.67;47.50;101276.41;5072090;28;20109;-81
2022/03/24 07:23:33;;;;;;;66.40;42.22;;;;;;;7.78;47.31;101282.03;5067146;28;20091;-75
2022/03/24 07:26:00;;;;;;;60.90;39.08;;;;;;;7.85;46.94;101275.59;5064767;28;20072;-78
2022/03/24 07:28:27;;;;;;;63.85;39.97;;;;;;;7.96;46.75;101279.50;5064666;28;20136;-75
2022/03/24 07:30:54;;;;;;;67.43;36.45;;;;;;;8.07;46.65;101277.25;5062549;28;20662;-77
2022/03/24 07:33:23;;;;;;;58.58;39.97;;;;;;;8.16;46.29;101275.97;5067688;28;20108;-74
2022/03/24 07:35:51;;;;;;;59.95;39.80;;;;;;;8.28;45.98;101270.13;5070087;28;20040;-75
2022/03/24 07:38:18;;;;;;;54.67;34.33;;;;;;;8.37;45.49;101263.59;5072970;28;20044;-77
2022/03/24 07:40:45;;;;;;;57.22;35.65;;;;;;;8.34;45.00;101274.28;5071658;28;20044;-75
2022/03/24 07:43:12;;;;;;;49.50;30.20;;;;;;;8.50;44.73;101272.66;5074397;28;20066;-77
2022/03/24 07:45:39;;;;;;;47.17;30.90;;;;;;;8.67;44.34;101274.47;5074983;28;20127;-76
2022/03/24 07:48:10;;;;;;;45.80;32.65;;;;;;;8.82;43.98;101269.38;5073585;28;20127;-75
2022/03/24 07:50:40;;;;;;;44.53;32.13;;;;;;;8.85;43.60;101279.78;5071964;28;20052;-74
2022/03/24 07:53:21;;;;;;;37.55;26.00;;;;;;;9.06;43.46;101275.25;5075046;28;20044;-77
2022/03/24 07:55:49;;;;;;;42.58;26.70;;;;;;;9.27;43.09;101268.88;5077187;28;20183;-76
2022/03/24 07:58:18;;;;;;;44.05;31.67;;;;;;;9.33;42.95;101268.56;5070200;28;20044;-76
2022/03/24 08:00:45;;;;;;;41.92;26.92;;;;;;;9.38;42.55;101271.84;5070291;28;20040;-78
2022/03/24 08:03:14;;;;;;;39.35;24.63;;;;;;;9.55;42.57;101268.31;5068681;28;20075;-78
2022/03/24 08:05:43;;;;;;;40.08;26.30;;;;;;;9.83;42.17;101274.78;5074933;28;20158;-84
2022/03/24 08:08:11;;;;;;;45.97;29.60;;;;;;;9.87;41.75;101270.22;5075539;28;20131;-77
2022/03/24 08:10:39;;;;;;;55.22;32.45;;;;;;;9.95;41.48;101273.28;5072608;28;20127;-77
2022/03/24 08:13:07;;;;;;;44.10;28.90;;;;;;;10.05;41.40;101273.66;5073323;28;20835;-77
2022/03/24 08:15:37;;;;;;;48.13;28.17;;;;;;;10.22;41.35;101278.84;5077633;28;20040;-77
2022/03/24 08:18:05;;;;;;;44.20;29.35;;;;;;;10.35;40.90;101271.13;5072917;28;20174;-75
2022/03/24 08:20:32;;;;;;;36.97;28.13;;;;;;;10.37;40.33;101281.63;5074569;28;20059;-80
2022/03/24 08:23:01;;;;;;;42.33;29.90;;;;;;;10.43;40.10;101276.84;5072643;28;20072;-76
2022/03/24 08:25:28;;;;;;;37.65;24.60;;;;;;;10.60;40.00;101272.41;5072728;28;20036;-77
2022/03/24 08:27:55;;;;;;;38.35;25.35;;;;;;;10.77;39.75;101266.16;5073964;28;20131;-79
2022/03/24 08:30:23;;;;;;;28.40;18.33;;;;;;;10.83;39.03;101271.94;5073491;28;20036;-76
2022/03/24 08:32:51;;;;;;;24.67;16.02;;;;;;;10.93;38.28;101272.28;5074966;28;20222;-79
2022/03/24 08:35:18;;;;;;;28.63;19.48;;;;;;;11.01;38.25;101266.56;5078267;28;20127;-79
2022/03/24 08:37:46;;;;;;;28.08;18.15;;;;;;;11.16;38.16;101268.28;5070205;28;20123;-78
2022/03/24 08:40:15;;;;;;;25.17;16.75;;;;;;;11.51;37.83;101272.44;5074721;28;20771;-80
2022/03/24 08:42:43;;;;;;;31.38;18.48;;;;;;;11.63;37.27;101263.75;5078666;28;20127;-77
2022/03/24 08:45:13;;;;;;;24.33;14.13;;;;;;;11.58;36.63;101264.03;5088118;28;20103;-79
2022/03/24 08:47:41;;;;;;;17.98;12.30;;;;;;;11.69;35.89;101259.91;5092387;28;20055;-74
2022/03/24 08:50:11;;;;;;;23.38;13.65;;;;;;;11.74;35.91;101266.59;5089109;28;20091;-75
2022/03/24 08:52:38;;;;;;;22.65;15.35;;;;;;;11.94;35.71;101256.59;5072035;28;20052;-74
2022/03/24 08:55:08;;;;;;;25.55;18.58;;;;;;;12.15;35.83;101255.25;5072165;28;20638;-74
2022/03/24 08:57:38;;;;;;;22.08;15.50;;;;;;;12.20;34.98;101255.81;5037541;28;20041;-75
2022/03/24 09:00:12;;;;;;;21.25;13.82;;;;;;;12.27;34.91;101256.28;5068453;28;20104;-76
2022/03/24 09:02:40;;;;;;;27.30;18.77;;;;;;;12.34;34.80;101256.75;5069624;28;20131;-71
2022/03/24 09:05:07;;;;;;;22.17;14.63;;;;;;;12.28;34.22;101260.66;5066231;28;20055;-73
2022/03/24 09:07:35;;;;;;;24.52;14.75;;;;;;;12.44;34.18;101255.19;5070949;28;20119;-71
2022/03/24 09:10:02;;;;;;;21.83;17.88;;;;;;;12.65;33.75;101255.63;5068382;28;20127;-72
2022/03/24 09:12:30;;;;;;;23.65;13.98;;;;;;;12.50;32.68;101262.78;5070705;28;20040;-70
2022/03/24 09:14:59;;;;;;;16.38;11.10;;;;;;;12.62;32.58;101263.75;5071716;28;20049;-72
2022/03/24 09:17:26;;;;;;;21.88;15.00;;;;;;;12.84;32.34;101263.22;5071508;28;20036;-73
2022/03/24 09:19:53;;;;;;;17.67;12.25;;;;;;;12.77;31.34;101260.13;5071144;28;20089;-76
2022/03/24 09:22:20;;;;;;;16.77;13.18;;;;;;;12.71;30.95;101255.22;5069945;28;20051;-72
2022/03/24 09:24:47;;;;;;;18.63;13.57;;;;;;;12.72;31.79;101264.88;5074047;28;20040;-75
2022/03/24 09:27:15;;;;;;;18.05;13.77;;;;;;;12.77;31.82;101259.28;5070701;28;20119;-74
2022/03/24 09:29:42;;;;;;;24.85;16.45;;;;;;;12.71;31.69;101259.66;5070439;28;20397;-71
2022/03/24 09:32:12;;;;;;;16.95;14.00;;;;;;;12.77;30.89;101260.13;5072913;28;20083;-73
2022/03/24 09:34:40;;;;;;;24.15;15.52;;;;;;;12.75;31.46;101258.53;5069594;28;20242;-73
2022/03/24 09:37:07;;;;;;;18.30;13.35;;;;;;;13.03;31.54;101249.56;5069534;28;20064;-74
2022/03/24 09:39:35;;;;;;;25.35;14.25;;;;;;;13.15;31.56;101247.91;5066408;28;20139;-77
2022/03/24 09:42:03;;;;;;;14.95;11.07;;;;;;;13.41;31.11;101254.13;5060652;28;20178;-74
2022/03/24 09:44:31;;;;;;;14.77;12.68;;;;;;;13.47;30.59;101252.84;5062785;28;20067;-76
2022/03/24 09:46:58;;;;;;;17.80;14.20;;;;;;;13.26;30.62;101247.19;5065292;28;20049;-74
2022/03/24 09:49:27;;;;;;;21.58;15.90;;;;;;;13.16;31.53;101255.78;5063454;28;20063;-74
2022/03/24 09:51:54;;;;;;;16.95;14.48;;;;;;;13.34;31.19;101253.72;5065043;28;20044;-74
2022/03/24 09:54:21;;;;;;;19.20;13.20;;;;;;;13.22;30.65;101245.69;5065333;28;20699;-73
2022/03/24 09:56:48;;;;;;;15.63;11.48;;;;;;;13.23;31.00;101247.38;5062913;28;20056;-72
2022/03/24 09:59:17;;;;;;;16.52;12.50;;;;;;;13.22;30.81;101253.63;5065751;28;20136;-74
2022/03/24 10:01:44;;;;;;;18.58;10.70;;;;;;;13.25;31.04;101248.13;5067197;28;20045;-73
2022/03/24 10:04:14;;;;;;;15.52;10.05;;;;;;;13.21;30.20;101242.19;5062532;28;20135;-74
2022/03/24 10:07:00;;;;;;;14.90;11.43;;;;;;;13.26;30.78;101244.53;5064717;28;20048;-75
2022/03/24 10:09:37;;;;;;;16.50;11.95;;;;;;;13.36;30.56;101251.78;5064185;28;20045;-73
2022/03/24 10:12:05;;;;;;;15.70;9.90;;;;;;;13.46;30.49;101245.84;5067005;28;20129;-73
2022/03/24 10:14:32;;;;;;;18.55;13.07;;;;;;;13.57;30.52;101243.31;5065255;28;20566;-74
2022/03/24 10:17:07;;;;;;;18.35;12.50;;;;;;;13.54;30.33;101244.38;5064164;28;20047;-74
2022/03/24 10:19:34;;;;;;;15.90;9.88;;;;;;;13.56;30.46;101244.28;5064295;28;20083;-74
2022/03/24 10:22:08;;;;;;;16.58;11.98;;;;;;;13.77;30.28;101247.22;5064770;28;20045;-74
2022/03/24 10:24:41;;;;;;;19.30;13.00;;;;;;;13.68;30.20;101239.91;5064966;28;20345;-74
2022/03/24 10:27:08;;;;;;;15.57;11.13;;;;;;;13.59;30.14;101244.03;5064296;28;20048;-74
2022/03/24 10:29:36;;;;;;;13.70;10.02;;;;;;;13.68;30.33;101239.91;5065776;28;20047;-74
2022/03/24 10:32:05;;;;;;;19.95;13.07;;;;;;;13.79;30.25;101236.50;5065138;28;20045;-72
2022/03/24 10:34:34;;;;;;;21.67;12.15;;;;;;;13.81;29.41;101230.13;5066004;28;20135;-79
2022/03/24 10:37:08;;;;;;;12.77;10.55;;;;;;;13.92;29.22;101224.91;5068716;28;20056;-79
2022/03/24 10:39:36;;;;;;;14.52;11.02;;;;;;;13.95;28.88;101232.66;5070150;28;20051;-82
2022/03/24 10:42:18;;;;;;;19.05;9.77;;;;;;;13.98;29.12;101220.97;5069458;28;20052;-79
2022/03/24 10:45:12;;;;;;;14.10;9.02;;;;;;;14.01;28.47;101228.72;5070428;28;20048;-80
2022/03/24 10:47:43;;;;;;;12.15;9.27;;;;;;;13.96;27.40;101229.03;5068532;28;20048;-82
2022/03/24 10:50:25;;;;;;;15.68;9.38;;;;;;;14.05;28.83;101226.69;5072290;28;20491;-77
2022/03/24 10:52:57;;;;;;;13.15;11.48;;;;;;;14.16;28.74;101229.41;5079112;28;20043;-81
2022/03/24 10:55:52;;;;;;;11.23;9.10;;;;;;;14.13;28.79;101224.31;5074125;28;20104;-79
2022/03/24 10:58:26;;;;;;;15.05;10.02;;;;;;;14.24;28.78;101232.38;5080582;28;20932;-77
2022/03/24 11:00:56;;;;;;;13.52;9.23;;;;;;;14.36;28.53;101221.81;5080548;28;20046;-78
2022/03/24 11:03:23;;;;;;;15.15;10.50;;;;;;;14.34;28.53;101213.94;5080748;28;20048;-79
2022/03/24 11:06:04;;;;;;;13.77;10.48;;;;;;;14.37;28.72;101205.75;5079920;28;20143;-79
2022/03/24 11:08:34;;;;;;;15.95;11.75;;;;;;;14.40;28.65;101212.66;5080184;28;20123;-73
2022/03/24 11:11:01;;;;;;;18.23;10.80;;;;;;;14.37;28.71;101205.75;5074039;28;20059;-75
2022/03/24 11:13:40;;;;;;;18.50;10.45;;;;;;;14.34;28.93;101208.63;5078401;28;20387;-78
2022/03/24 11:16:08;;;;;;;15.63;10.10;;;;;;;14.48;29.00;101199.66;5090423;28;20068;-81
2022/03/24 11:18:35;;;;;;;19.27;11.18;;;;;;;14.59;28.51;101205.03;5094670;28;20051;-81
2022/03/24 11:21:05;;;;;;;15.70;9.65;;;;;;;14.76;28.35;101202.94;5085417;28;20127;-77